CheckWX is a tool to help pilots better visualize weather data.  It is not intended as a substitute for an official pre-flight weather briefing.

04:19:29 UTC

KCCR METAR
Buchanan Field Airport
Concord, California, USA
Current

26 mins ago

KCCR 270353Z 22009KT 10SM CLR 17/10 A3002 RMK AO2 SLP151 T01720100
Observed
Jun-27 @ 03:53 UTC
Wind
  • 220° at 9 KTS
Visibility
10 SM
Flight Rules
VFR
Cloud Levels
  • Clear skies
Temperature
17°C / 63°F
Dewpoint
10°C / 50°F
Humidity
64%
Altimeter
30.02" Hg
Pressure
1016.62 hPa
Previous

1 hour ago

KCCR 270253Z 25006KT 10SM CLR 19/10 A3001 RMK AO2 SLP147 T01940100 53004
Observed
Jun-27 @ 02:53 UTC
Wind
  • 250° at 6 KTS
Visibility
10 SM
Flight Rules
VFR
Cloud Levels
  • Clear skies
Temperature
19°C / 66°F
Dewpoint
10°C / 50°F
Humidity
56%
Altimeter
30.01" Hg
Pressure
1016.22 hPa
Previous

2 hours ago

KCCR 270153Z 24012G18KT 10SM CLR 21/09 A2999 RMK AO2 SLP141 T02060089
Observed
Jun-27 @ 01:53 UTC
Wind
  • 240° at 12 KTS
  • Gusting to 18 KTS
Visibility
10 SM
Flight Rules
VFR
Cloud Levels
  • Clear skies
Temperature
21°C / 70°F
Dewpoint
C / 48°F
Humidity
46%
Altimeter
29.99" Hg
Pressure
1015.62 hPa